Time;durP1;ratioP1;P1;durP2;ratioP2;P2;SDS_P1;SDS_P2;PMS_P1;PMS_P2;Temp;Humidity;BMP_temperature;BMP_pressure;BME280_temperature;BME280_humidity;BME280_pressure;Samples;Min_cycle;Max_cycle;Signal;HPM_P1;HPM_P2
2021/09/10 00:01:09;;;;;;;33.58;19.42;;;;;;;24.17;36.44;99951.16;1749190;80;21024;-43
2021/09/10 00:03:37;;;;;;;35.13;18.42;;;;;;;24.17;36.41;99959.23;1743134;79;21142;-43
2021/09/10 00:06:04;;;;;;;36.40;19.20;;;;;;;24.15;36.39;99953.14;1716950;81;21051;-43
2021/09/10 00:08:31;;;;;;;40.40;19.35;;;;;;;24.13;36.40;99957.30;1709734;81;21979;-42
2021/09/10 00:10:59;;;;;;;37.50;20.70;;;;;;;24.13;36.42;99962.67;1731175;81;21059;-43
2021/09/10 00:13:27;;;;;;;38.60;20.35;;;;;;;24.10;36.43;99954.36;1680863;83;20969;-43
2021/09/10 00:15:53;;;;;;;31.85;19.85;;;;;;;24.09;36.45;99956.70;1672598;83;21604;-42
2021/09/10 00:18:19;;;;;;;33.80;19.00;;;;;;;24.07;36.43;99954.64;1682229;83;21110;-43
2021/09/10 00:20:47;;;;;;;38.73;19.95;;;;;;;24.05;36.41;99957.92;1692351;83;21463;-47
2021/09/10 00:23:14;;;;;;;33.38;20.20;;;;;;;24.02;36.43;99950.62;1721907;82;21087;-45
2021/09/10 00:25:42;;;;;;;32.05;19.73;;;;;;;24.00;36.45;99952.09;1731444;81;21020;-45
2021/09/10 00:28:08;;;;;;;36.28;19.17;;;;;;;23.99;36.49;99950.40;1737602;81;21549;-44
2021/09/10 00:30:34;;;;;;;31.70;19.25;;;;;;;23.98;36.47;99954.06;1734742;82;21088;-43
2021/09/10 00:33:01;;;;;;;30.30;18.62;;;;;;;23.96;36.47;99956.03;1734073;81;21352;-46
2021/09/10 00:35:28;;;;;;;39.88;18.92;;;;;;;23.94;36.48;99956.66;1736497;81;21067;-43
2021/09/10 00:37:54;;;;;;;29.18;18.17;;;;;;;23.93;36.47;99953.59;1712230;81;21537;-43
2021/09/10 00:40:21;;;;;;;32.10;18.42;;;;;;;23.93;36.47;99953.59;1720817;81;21082;-43
2021/09/10 00:42:47;;;;;;;35.13;18.27;;;;;;;23.90;36.47;99950.66;1745873;80;21581;-45
2021/09/10 00:45:13;;;;;;;32.03;19.07;;;;;;;23.90;36.48;99953.84;1758256;78;21821;-44
2021/09/10 00:47:41;;;;;;;31.15;18.17;;;;;;;23.89;36.49;99955.69;1761770;80;21044;-43
2021/09/10 00:50:09;;;;;;;29.80;17.95;;;;;;;23.86;36.45;99959.97;1743692;79;21068;-46
2021/09/10 00:52:35;;;;;;;33.70;19.12;;;;;;;23.85;36.48;99954.72;1782290;79;21028;-43
2021/09/10 00:55:04;;;;;;;34.18;19.12;;;;;;;23.84;36.53;99951.66;1763796;80;21479;-45
2021/09/10 00:57:30;;;;;;;33.00;18.42;;;;;;;23.82;36.56;99949.13;1758495;80;21119;-42
2021/09/10 00:59:56;;;;;;;33.25;18.12;;;;;;;23.82;36.55;99954.97;1748865;78;21213;-43
2021/09/10 01:02:23;;;;;;;40.70;18.75;;;;;;;23.80;36.54;99952.38;1755750;79;21569;-42
2021/09/10 01:04:50;;;;;;;35.80;18.25;;;;;;;23.79;36.53;99956.53;1740165;80;21082;-43
2021/09/10 01:07:16;;;;;;;39.58;19.48;;;;;;;23.77;36.54;99958.03;1723681;81;21096;-43
2021/09/10 01:09:44;;;;;;;38.33;19.90;;;;;;;23.76;36.55;99959.50;1756280;81;21550;-43
2021/09/10 01:12:10;;;;;;;40.15;19.32;;;;;;;23.74;36.56;99960.47;1728637;80;21019;-44
2021/09/10 01:14:37;;;;;;;35.68;18.42;;;;;;;23.71;36.57;99962.05;1736972;80;21087;-42
2021/09/10 01:17:04;;;;;;;38.92;18.98;;;;;;;23.70;36.55;99957.69;1750088;79;21098;-46
2021/09/10 01:19:33;;;;;;;38.08;18.37;;;;;;;23.68;36.56;99959.61;1723462;81;21074;-44
2021/09/10 01:22:04;;;;;;;35.28;18.15;;;;;;;23.67;36.58;99961.96;1745361;78;21085;-43
2021/09/10 01:25:01;;;;;;;37.42;19.07;;;;;;;23.66;36.57;99954.87;1764438;79;21047;-44
2021/09/10 01:27:27;;;;;;;36.40;18.35;;;;;;;23.64;36.58;99956.83;1745192;80;21014;-45
2021/09/10 01:29:54;;;;;;;38.78;20.57;;;;;;;23.62;36.59;99957.92;1743066;80;20984;-45
2021/09/10 01:32:20;;;;;;;35.63;18.25;;;;;;;23.60;36.60;99956.70;1757339;80;20958;-43
2021/09/10 01:34:46;;;;;;;42.48;18.27;;;;;;;23.59;36.58;99955.48;1746522;80;21111;-44
2021/09/10 01:37:13;;;;;;;28.55;16.80;;;;;;;23.56;36.57;99959.30;1716453;81;21019;-43
2021/09/10 01:39:39;;;;;;;32.50;17.35;;;;;;;23.55;36.58;99953.55;1720889;80;21035;-42
2021/09/10 01:42:07;;;;;;;34.65;17.05;;;;;;;23.53;36.58;99955.52;1757953;78;21509;-44
2021/09/10 01:44:34;;;;;;;34.63;17.55;;;;;;;23.53;36.58;99955.52;1750946;80;21074;-46
2021/09/10 01:47:02;;;;;;;35.10;17.65;;;;;;;23.51;36.58;99954.79;1750135;79;21525;-44
2021/09/10 01:49:28;;;;;;;33.08;16.82;;;;;;;23.47;36.62;99954.19;1763368;79;20972;-42
2021/09/10 01:51:55;;;;;;;33.38;17.65;;;;;;;23.45;36.64;99952.59;1754806;79;21143;-42
2021/09/10 01:54:22;;;;;;;33.85;17.30;;;;;;;23.44;36.65;99951.75;1723876;81;21060;-46
2021/09/10 01:56:50;;;;;;;41.73;19.73;;;;;;;23.41;36.62;99951.16;1756975;80;21130;-43
2021/09/10 01:59:16;;;;;;;42.03;21.07;;;;;;;23.41;36.59;99947.13;1733264;81;21568;-47
2021/09/10 02:01:43;;;;;;;47.83;20.82;;;;;;;23.37;36.59;99944.69;1755396;79;20976;-42
2021/09/10 02:04:11;;;;;;;38.98;20.05;;;;;;;23.37;36.61;99948.71;1744779;78;21047;-43
2021/09/10 02:06:37;;;;;;;38.23;20.35;;;;;;;23.35;36.62;99950.67;1746338;80;21713;-42
2021/09/10 02:09:05;;;;;;;42.27;19.20;;;;;;;23.34;36.63;99943.59;1775990;79;20990;-43
2021/09/10 02:11:31;;;;;;;37.23;18.82;;;;;;;23.34;36.60;99946.77;1737333;80;21142;-46
2021/09/10 02:13:58;;;;;;;35.83;18.55;;;;;;;23.31;36.67;99946.52;1725258;80;21587;-43
2021/09/10 02:16:26;;;;;;;38.55;19.48;;;;;;;23.30;36.65;99947.98;1768757;79;21036;-43
2021/09/10 02:18:53;;;;;;;34.55;19.27;;;;;;;23.27;36.71;99942.38;1729787;82;20997;-43
2021/09/10 02:21:19;;;;;;;38.65;18.67;;;;;;;23.26;36.66;99944.69;1734937;81;21563;-43
2021/09/10 02:23:47;;;;;;;32.23;17.95;;;;;;;23.25;36.70;99951.06;1658497;83;21262;-43
2021/09/10 02:26:13;;;;;;;37.70;18.48;;;;;;;23.24;36.66;99947.16;1733987;78;21104;-42
2021/09/10 02:28:40;;;;;;;33.05;18.62;;;;;;;23.23;36.67;99948.12;1734764;80;21082;-44
2021/09/10 02:31:07;;;;;;;30.80;17.15;;;;;;;23.21;36.72;99949.58;1735196;81;21103;-42
2021/09/10 02:33:33;;;;;;;31.93;16.45;;;;;;;23.20;36.74;99949.23;1765188;79;21054;-43
2021/09/10 02:36:00;;;;;;;30.85;16.97;;;;;;;23.19;36.79;99952.39;1725322;81;21185;-43
2021/09/10 02:38:27;;;;;;;29.85;17.62;;;;;;;23.18;36.83;99951.16;1760662;80;22122;-43
2021/09/10 02:40:53;;;;;;;35.40;18.32;;;;;;;23.17;36.88;99951.66;1735532;80;21006;-46
2021/09/10 02:43:21;;;;;;;28.90;17.00;;;;;;;23.17;36.91;99948.13;1753753;79;22091;-42
2021/09/10 02:45:48;;;;;;;30.48;17.25;;;;;;;23.15;36.97;99947.41;1755644;80;21125;-47
2021/09/10 02:48:15;;;;;;;38.45;18.65;;;;;;;23.15;36.97;99946.91;1728302;80;21212;-44
2021/09/10 02:50:42;;;;;;;32.30;18.23;;;;;;;23.15;36.97;99948.75;1739150;80;21526;-44
2021/09/10 02:53:10;;;;;;;33.80;19.02;;;;;;;23.14;36.98;99947.03;1766643;79;21015;-44
2021/09/10 02:55:37;;;;;;;36.60;19.45;;;;;;;23.14;36.95;99947.03;1736550;81;21213;-42
2021/09/10 02:58:05;;;;;;;39.18;20.62;;;;;;;23.14;36.90;99949.72;1736321;80;21122;-42
2021/09/10 03:00:33;;;;;;;38.48;20.17;;;;;;;23.13;36.90;99946.66;1727788;80;23300;-44
2021/09/10 03:02:59;;;;;;;35.25;19.35;;;;;;;23.12;36.93;99940.94;1729596;80;21069;-43
2021/09/10 03:05:28;;;;;;;38.65;19.30;;;;;;;23.12;36.92;99939.60;1726145;80;21036;-43
2021/09/10 03:07:57;;;;;;;37.83;18.95;;;;;;;23.10;36.96;99938.38;1731490;80;21487;-43
2021/09/10 03:10:24;;;;;;;32.13;17.45;;;;;;;23.10;36.96;99940.19;1708953;80;21566;-45
2021/09/10 03:12:52;;;;;;;33.45;16.93;;;;;;;23.08;36.96;99937.66;1754105;79;21009;-48
2021/09/10 03:15:19;;;;;;;37.95;18.98;;;;;;;23.08;37.00;99934.09;1746129;78;20960;-43
2021/09/10 03:17:45;;;;;;;35.05;17.70;;;;;;;23.07;37.04;99938.62;1730599;80;21404;-43
2021/09/10 03:20:13;;;;;;;29.32;16.87;;;;;;;23.07;37.07;99935.09;1729922;80;22549;-44
2021/09/10 03:22:41;;;;;;;35.08;17.50;;;;;;;23.07;37.09;99933.75;1745392;79;21094;-46
2021/09/10 03:25:10;;;;;;;28.73;16.87;;;;;;;23.06;37.10;99934.22;1749516;79;21906;-44
2021/09/10 03:27:36;;;;;;;30.15;16.15;;;;;;;23.06;37.10;99935.56;1708867;82;21135;-43
2021/09/10 03:30:05;;;;;;;28.90;16.48;;;;;;;23.04;37.07;99930.78;1715381;81;21000;-43
2021/09/10 03:32:32;;;;;;;34.27;15.85;;;;;;;23.05;37.08;99930.28;1682889;82;21488;-43
2021/09/10 03:34:59;;;;;;;26.77;15.43;;;;;;;23.05;37.07;99928.94;1719723;80;21049;-43
2021/09/10 03:37:27;;;;;;;28.10;16.00;;;;;;;23.04;37.04;99932.13;1737825;81;21550;-43
2021/09/10 03:39:54;;;;;;;23.60;14.85;;;;;;;23.05;37.02;99934.30;1732009;79;21004;-43
2021/09/10 03:42:21;;;;;;;31.60;15.00;;;;;;;23.05;37.02;99934.30;1742919;80;21031;-43
2021/09/10 03:44:49;;;;;;;26.73;14.87;;;;;;;23.05;37.00;99931.63;1744414;80;21108;-46
2021/09/10 03:47:16;;;;;;;26.27;15.48;;;;;;;23.08;36.96;99934.09;1734604;80;21571;-43
2021/09/10 03:49:42;;;;;;;29.65;15.15;;;;;;;23.12;36.90;99942.28;1725689;81;21145;-43
2021/09/10 03:52:09;;;;;;;29.02;14.05;;;;;;;23.17;36.84;99944.95;1722638;80;21077;-43
2021/09/10 03:54:37;;;;;;;26.50;13.78;;;;;;;23.23;36.73;99940.91;1743507;79;21095;-43
2021/09/10 03:57:04;;;;;;;30.27;14.53;;;;;;;23.32;36.61;99939.34;1735196;78;21102;-42
2021/09/10 03:59:31;;;;;;;23.75;13.93;;;;;;;23.40;36.50;99938.69;1734615;79;21085;-44
2021/09/10 04:01:58;;;;;;;29.65;14.25;;;;;;;23.49;36.41;99948.70;1742418;80;21639;-45
2021/09/10 04:04:24;;;;;;;26.23;14.05;;;;;;;23.58;36.25;99937.19;1739092;80;21105;-44
2021/09/10 04:06:52;;;;;;;30.12;14.18;;;;;;;23.67;36.10;99943.16;1730688;80;21071;-43
2021/09/10 04:09:20;;;;;;;26.75;14.10;;;;;;;23.80;35.94;99951.53;1744020;78;21063;-42
2021/09/10 04:11:49;;;;;;;32.20;14.30;;;;;;;23.89;35.82;99948.13;1730132;80;21620;-43
2021/09/10 04:14:17;;;;;;;30.23;13.58;;;;;;;24.00;35.66;99945.37;1705187;82;22516;-44
2021/09/10 04:16:44;;;;;;;26.93;13.28;;;;;;;24.11;35.51;99940.45;1693192;83;21573;-42
2021/09/10 04:19:10;;;;;;;34.30;14.33;;;;;;;24.21;35.39;99939.16;1724866;81;21028;-43
2021/09/10 04:21:37;;;;;;;30.37;14.10;;;;;;;24.29;35.30;99937.54;1713731;80;21087;-42
2021/09/10 04:24:05;;;;;;;28.00;13.55;;;;;;;24.38;35.16;99938.58;1720099;80;21048;-47
2021/09/10 04:26:33;;;;;;;29.37;14.58;;;;;;;24.47;35.11;99941.81;1701337;82;21090;-43
2021/09/10 04:28:59;;;;;;;35.30;16.30;;;;;;;24.57;35.06;99940.56;1694372;81;21060;-42
2021/09/10 04:31:25;;;;;;;33.33;16.67;;;;;;;24.65;35.02;99938.06;1718721;81;20965;-46
2021/09/10 04:33:52;;;;;;;36.38;17.42;;;;;;;24.74;34.99;99941.78;1685383;82;21057;-43
2021/09/10 04:36:20;;;;;;;42.88;22.13;;;;;;;24.82;35.02;99939.28;1742227;79;21355;-43
2021/09/10 04:38:47;;;;;;;45.95;22.75;;;;;;;24.89;34.94;99944.97;1751169;79;21510;-49
2021/09/10 04:41:13;;;;;;;49.90;25.08;;;;;;;24.95;34.95;99940.87;1732408;80;21095;-44
2021/09/10 04:43:41;;;;;;;55.83;26.45;;;;;;;24.99;34.98;99942.33;1758146;80;21079;-43
2021/09/10 04:46:08;;;;;;;54.85;25.97;;;;;;;25.00;34.99;99940.01;1757535;79;21147;-43
2021/09/10 04:48:35;;;;;;;50.67;26.62;;;;;;;24.99;35.07;99939.64;1723971;80;21149;-45
2021/09/10 04:51:02;;;;;;;48.65;24.27;;;;;;;24.96;35.28;99939.91;1764321;78;21067;-44
2021/09/10 04:53:28;;;;;;;47.90;24.32;;;;;;;24.91;35.32;99942.15;1737014;80;21624;-44
2021/09/10 04:55:56;;;;;;;36.50;21.93;;;;;;;24.84;35.46;99941.33;1746710;80;21087;-43
2021/09/10 04:58:23;;;;;;;37.83;20.43;;;;;;;24.79;35.46;99936.84;1745212;79;21412;-43
2021/09/10 05:00:51;;;;;;;36.40;19.40;;;;;;;24.74;35.53;99935.05;1750624;78;21681;-44
2021/09/10 05:03:18;;;;;;;34.38;17.20;;;;;;;24.72;35.79;99934.84;1761748;79;21112;-43
2021/09/10 05:05:44;;;;;;;32.95;17.55;;;;;;;24.67;35.92;99933.89;1762531;79;21075;-43
2021/09/10 05:08:10;;;;;;;37.28;17.87;;;;;;;24.64;35.96;99930.13;1736661;79;22210;-42
2021/09/10 05:10:37;;;;;;;30.15;16.45;;;;;;;24.62;36.10;99932.94;1749539;80;21134;-42
2021/09/10 05:13:03;;;;;;;27.30;16.20;;;;;;;24.60;36.25;99932.23;1732849;80;21115;-42
2021/09/10 05:15:31;;;;;;;38.75;15.50;;;;;;;24.59;36.30;99935.05;1723413;80;21123;-42
2021/09/10 05:17:59;;;;;;;30.55;15.68;;;;;;;24.56;36.35;99937.53;1740695;80;21523;-46
2021/09/10 05:20:26;;;;;;;32.98;15.03;;;;;;;24.56;36.39;99938.00;1747962;80;21126;-45
2021/09/10 05:22:54;;;;;;;29.45;15.35;;;;;;;24.54;36.47;99937.26;1752281;79;21076;-43
2021/09/10 05:25:23;;;;;;;30.00;14.15;;;;;;;24.53;36.64;99935.54;1728056;78;21291;-42
2021/09/10 05:27:51;;;;;;;29.15;15.85;;;;;;;24.52;36.78;99933.85;1720702;81;21782;-42
2021/09/10 05:30:19;;;;;;;31.60;14.03;;;;;;;24.53;36.92;99938.23;1727811;80;21506;-43
2021/09/10 05:32:46;;;;;;;33.45;15.50;;;;;;;24.53;36.93;99935.54;1737029;80;21061;-47
2021/09/10 05:35:14;;;;;;;33.08;14.70;;;;;;;24.53;37.01;99935.54;1705042;81;21697;-43
2021/09/10 05:37:42;;;;;;;33.98;14.50;;;;;;;24.53;37.08;99935.54;1722196;80;21079;-42
2021/09/10 05:40:09;;;;;;;29.57;14.50;;;;;;;24.53;36.95;99938.23;1677807;81;21655;-43
2021/09/10 05:42:36;;;;;;;27.80;13.70;;;;;;;24.53;36.88;99935.54;1685211;83;21539;-44
2021/09/10 05:45:06;;;;;;;26.52;13.80;;;;;;;24.53;36.87;99943.61;1701048;81;20914;-45
2021/09/10 05:47:33;;;;;;;22.45;14.00;;;;;;;24.53;36.94;99947.64;1738666;80;21012;-43
2021/09/10 05:49:59;;;;;;;25.48;13.28;;;;;;;24.54;37.04;99946.67;1719176;81;21614;-42
2021/09/10 05:52:27;;;;;;;25.55;12.63;;;;;;;24.54;37.12;99946.67;1743235;80;22280;-43
2021/09/10 05:54:53;;;;;;;31.87;14.13;;;;;;;24.55;37.16;99943.88;1743923;80;21115;-44
2021/09/10 05:57:20;;;;;;;21.95;13.85;;;;;;;24.56;36.95;99952.80;1710907;81;21664;-43
2021/09/10 05:59:46;;;;;;;33.88;13.18;;;;;;;24.56;36.97;99939.34;1724309;79;21058;-42
2021/09/10 06:02:13;;;;;;;21.42;13.18;;;;;;;24.57;37.15;99947.79;1740059;80;21054;-41
2021/09/10 06:04:41;;;;;;;74.77;31.48;;;;;;;24.59;37.56;99945.81;1732660;81;21863;-43
2021/09/10 06:07:08;;;;;;;38.55;17.02;;;;;;;24.59;37.28;99948.50;1721450;80;21485;-42
2021/09/10 06:09:36;;;;;;;35.58;16.20;;;;;;;24.56;37.70;99950.11;1727228;80;21026;-41
2021/09/10 06:12:04;;;;;;;26.20;14.58;;;;;;;24.54;37.84;99950.70;1740019;79;21526;-42
2021/09/10 06:14:32;;;;;;;27.10;13.65;;;;;;;24.53;37.97;99947.64;1747931;79;21031;-42
2021/09/10 06:17:01;;;;;;;25.62;13.48;;;;;;;24.53;38.02;99956.59;1741894;78;21966;-42
2021/09/10 06:19:29;;;;;;;23.92;12.98;;;;;;;24.54;38.33;99958.27;1738238;79;21051;-42
2021/09/10 06:21:56;;;;;;;25.10;13.20;;;;;;;24.55;38.43;99953.80;1746923;78;21035;-45
2021/09/10 06:24:22;;;;;;;22.40;13.15;;;;;;;24.57;38.51;99959.89;1743150;79;21050;-42
2021/09/10 06:26:50;;;;;;;28.02;13.05;;;;;;;24.58;38.51;99966.48;1747607;79;21075;-44
2021/09/10 06:29:16;;;;;;;22.82;12.75;;;;;;;24.58;38.53;99965.61;1743077;79;21494;-44
2021/09/10 06:31:44;;;;;;;27.70;13.18;;;;;;;24.59;38.59;99967.33;1748923;80;21134;-41
2021/09/10 06:34:11;;;;;;;23.27;12.23;;;;;;;24.62;38.68;99969.77;1732650;80;21102;-43
2021/09/10 06:36:39;;;;;;;24.37;13.30;;;;;;;24.64;38.73;99969.13;1756638;79;21947;-42
2021/09/10 06:39:05;;;;;;;19.17;12.82;;;;;;;24.67;38.68;99964.84;1741906;79;21051;-43
2021/09/10 06:41:32;;;;;;;22.07;12.33;;;;;;;24.71;38.74;99964.08;1755989;78;22052;-42
2021/09/10 06:43:58;;;;;;;20.92;11.85;;;;;;;24.76;38.79;99965.37;1766338;79;21074;-41
2021/09/10 06:46:24;;;;;;;25.85;11.97;;;;;;;24.79;38.82;99961.06;1768301;78;22110;-42
2021/09/10 06:48:51;;;;;;;27.75;11.55;;;;;;;24.82;38.76;99959.46;1749803;79;21086;-42
2021/09/10 06:51:17;;;;;;;31.20;12.53;;;;;;;24.87;38.77;99964.95;1744935;78;21691;-43
2021/09/10 06:53:44;;;;;;;25.77;12.78;;;;;;;24.90;38.67;99968.70;1753811;78;21123;-43
2021/09/10 06:56:10;;;;;;;32.05;12.73;;;;;;;24.93;39.08;99964.39;1757074;79;22134;-44
2021/09/10 06:58:37;;;;;;;24.90;11.60;;;;;;;24.96;39.31;99973.55;1743392;79;21047;-43
2021/09/10 07:01:03;;;;;;;22.62;11.80;;;;;;;24.99;39.21;99974.63;1750568;79;21886;-43
2021/09/10 07:03:30;;;;;;;26.70;12.37;;;;;;;25.02;39.26;99974.37;1752638;78;21048;-42
2021/09/10 07:05:56;;;;;;;23.38;12.05;;;;;;;25.07;39.29;99975.31;1758421;78;22251;-42
2021/09/10 07:08:23;;;;;;;22.60;11.80;;;;;;;25.11;39.27;99973.54;1763057;78;21033;-42
2021/09/10 07:10:51;;;;;;;30.20;12.15;;;;;;;25.15;39.28;99976.34;1751962;79;21062;-42
2021/09/10 07:13:17;;;;;;;19.95;11.18;;;;;;;25.20;39.23;99974.56;1743199;80;21070;-43
2021/09/10 07:15:44;;;;;;;19.48;10.78;;;;;;;25.23;39.15;99976.98;1734989;79;21054;-41
2021/09/10 07:18:10;;;;;;;22.70;11.25;;;;;;;25.28;38.96;99973.92;1740390;79;21047;-42
2021/09/10 07:20:37;;;;;;;18.87;10.70;;;;;;;25.30;38.52;99980.89;1755157;78;21504;-43
2021/09/10 07:23:03;;;;;;;24.70;11.08;;;;;;;25.34;38.45;99982.81;1741671;78;21020;-43
2021/09/10 07:25:29;;;;;;;20.52;10.82;;;;;;;25.37;38.52;99978.51;1724608;80;21047;-42
2021/09/10 07:27:56;;;;;;;16.20;9.78;;;;;;;25.40;38.67;99978.20;1741510;78;21095;-42
2021/09/10 07:30:23;;;;;;;18.87;10.58;;;;;;;25.44;38.80;99981.00;1739670;80;21136;-42
2021/09/10 07:32:49;;;;;;;19.30;10.45;;;;;;;25.48;38.43;99985.11;1738363;80;21079;-42
2021/09/10 07:35:16;;;;;;;21.25;11.10;;;;;;;25.51;38.36;99983.99;1738601;80;22015;-42
2021/09/10 07:37:44;;;;;;;26.62;10.10;;;;;;;25.54;38.53;99984.56;1743231;80;21066;-42
2021/09/10 07:40:12;;;;;;;16.93;10.48;;;;;;;25.57;38.54;99985.64;1741585;80;21042;-44
2021/09/10 07:42:40;;;;;;;18.17;10.55;;;;;;;25.63;38.85;99983.38;1721454;81;21932;-41
2021/09/10 07:45:08;;;;;;;26.25;11.70;;;;;;;25.66;39.21;99983.95;1696248;81;21019;-42
2021/09/10 07:47:34;;;;;;;21.80;10.90;;;;;;;25.70;39.33;99988.06;1695956;81;21035;-43
2021/09/10 07:50:02;;;;;;;20.32;10.00;;;;;;;25.73;38.88;99985.59;1679269;82;21571;-43
2021/09/10 07:52:28;;;;;;;21.57;9.95;;;;;;;25.77;38.50;99985.66;1666254;84;21970;-44
2021/09/10 07:54:54;;;;;;;23.18;10.60;;;;;;;25.79;38.05;99983.70;1710761;81;21206;-43
2021/09/10 07:57:21;;;;;;;18.25;10.30;;;;;;;25.81;38.35;99984.41;1665895;83;21057;-45
2021/09/10 07:59:47;;;;;;;15.25;9.43;;;;;;;25.85;38.43;99983.12;1673792;83;21111;-43
2021/09/10 08:02:14;;;;;;;20.95;10.05;;;;;;;25.88;37.93;99977.45;1741712;80;21030;-44
2021/09/10 08:04:40;;;;;;;22.40;10.38;;;;;;;25.90;37.90;99978.16;1738430;80;21398;-42
2021/09/10 08:07:09;;;;;;;21.85;10.48;;;;;;;25.94;37.98;99974.20;1743603;80;21056;-43
2021/09/10 08:09:37;;;;;;;18.55;10.68;;;;;;;25.98;37.88;99973.96;1738494;80;20885;-43
2021/09/10 08:12:04;;;;;;;18.77;11.28;;;;;;;26.01;38.06;99971.83;1738984;80;21019;-41
2021/09/10 08:14:30;;;;;;;18.70;10.00;;;;;;;26.05;38.07;99968.34;1738732;80;21906;-45
2021/09/10 08:16:58;;;;;;;16.00;8.88;;;;;;;26.08;36.66;99971.61;1737788;80;20996;-45
2021/09/10 08:19:26;;;;;;;19.60;10.72;;;;;;;26.08;36.91;99970.77;1736964;80;21037;-45
2021/09/10 08:21:53;;;;;;;12.35;8.70;;;;;;;26.08;37.01;99970.77;1698903;81;21648;-45
2021/09/10 08:24:20;;;;;;;15.23;8.85;;;;;;;26.08;36.86;99966.72;1747735;80;21054;-45
2021/09/10 08:26:48;;;;;;;14.83;7.45;;;;;;;26.08;36.31;99966.72;1734198;80;21726;-45
2021/09/10 08:29:14;;;;;;;15.48;7.70;;;;;;;26.08;35.17;99964.86;1739665;80;21070;-45
2021/09/10 08:31:42;;;;;;;16.60;7.90;;;;;;;26.07;35.76;99958.27;1737998;80;22039;-45
2021/09/10 08:34:09;;;;;;;19.42;7.33;;;;;;;26.06;36.05;99963.32;1733402;80;20919;-44
2021/09/10 08:36:35;;;;;;;14.25;7.70;;;;;;;26.06;35.53;99964.16;1738664;80;20982;-44
2021/09/10 08:39:01;;;;;;;15.95;7.05;;;;;;;26.07;35.90;99959.61;1738445;80;21095;-44
2021/09/10 08:41:28;;;;;;;12.60;7.40;;;;;;;26.09;35.69;99952.22;1718996;80;20994;-45
2021/09/10 08:43:57;;;;;;;11.60;6.15;;;;;;;26.11;35.63;99952.95;1729663;80;21155;-48
2021/09/10 08:46:24;;;;;;;10.65;6.60;;;;;;;26.13;35.17;99953.66;1713818;80;20988;-45
2021/09/10 08:48:51;;;;;;;13.88;7.12;;;;;;;26.16;35.03;99945.28;1734119;80;21181;-45
2021/09/10 08:51:18;;;;;;;12.10;6.53;;;;;;;26.19;35.34;99949.02;1697173;81;20956;-45
2021/09/10 08:53:44;;;;;;;13.25;6.97;;;;;;;26.22;35.59;99943.85;1709865;80;21130;-45
2021/09/10 08:56:13;;;;;;;11.93;6.85;;;;;;;26.25;35.69;99940.36;1711484;81;21007;-44
2021/09/10 08:58:40;;;;;;;14.00;5.90;;;;;;;26.27;35.70;99938.37;1722284;80;20989;-46
2021/09/10 09:01:06;;;;;;;10.32;6.28;;;;;;;26.31;34.71;99939.80;1682429;82;21038;-44
2021/09/10 09:03:33;;;;;;;14.63;6.20;;;;;;;26.35;34.75;99938.17;1698190;80;21008;-46
2021/09/10 09:06:01;;;;;;;9.48;6.20;;;;;;;26.36;34.86;99929.93;1717849;80;48089;-45
2021/09/10 09:08:27;;;;;;;12.33;5.37;;;;;;;26.40;34.87;99930.48;1736843;80;21202;-44
2021/09/10 09:11:07;;;;;;;11.33;6.95;;;;;;;26.42;34.19;99924.44;1734009;80;20991;-45
2021/09/10 09:13:36;;;;;;;8.98;5.60;;;;;;;26.44;34.41;99930.53;1739188;80;20976;-46
2021/09/10 09:16:24;;;;;;;10.38;5.97;;;;;;;26.42;34.45;99925.79;1742368;80;20977;-45
2021/09/10 09:18:53;;;;;;;13.30;5.47;;;;;;;26.40;33.59;99931.33;1741601;80;21058;-45
2021/09/10 09:21:33;;;;;;;13.28;5.70;;;;;;;26.39;33.50;99925.57;1732487;79;21066;-46
2021/09/10 09:24:17;;;;;;;12.50;6.35;;;;;;;26.39;33.41;99928.27;1741795;79;21522;-44
2021/09/10 09:26:48;;;;;;;13.20;5.67;;;;;;;26.40;33.10;99920.54;1754955;79;21592;-44
2021/09/10 09:29:17;;;;;;;11.30;6.08;;;;;;;26.43;32.97;99919.41;1745035;79;21119;-44
2021/09/10 09:31:58;;;;;;;8.48;5.87;;;;;;;26.44;33.56;99921.09;1706954;81;21153;-45
2021/09/10 09:34:47;;;;;;;13.05;5.53;;;;;;;26.47;33.91;99920.30;1709014;81;21141;-44
2021/09/10 09:37:18;;;;;;;8.40;4.90;;;;;;;26.50;33.86;99917.83;1698737;81;21001;-44
2021/09/10 09:40:00;;;;;;;9.73;5.60;;;;;;;26.55;34.22;99916.05;1712021;81;21595;-42
2021/09/10 09:42:29;;;;;;;9.98;6.00;;;;;;;26.56;33.98;99913.17;1736486;81;21043;-42
2021/09/10 09:45:16;;;;;;;7.28;5.40;;;;;;;26.59;33.79;99910.18;1704995;81;21075;-46
2021/09/10 09:47:43;;;;;;;9.03;4.47;;;;;;;26.63;34.02;99912.98;1732432;81;21124;-44
2021/09/10 09:50:17;;;;;;;8.03;5.65;;;;;;;26.64;33.72;99911.97;1710198;81;20949;-42
2021/09/10 09:52:48;;;;;;;10.17;5.53;;;;;;;26.66;34.00;99912.70;1736877;80;21075;-42
2021/09/10 09:55:15;;;;;;;7.40;5.28;;;;;;;26.69;34.06;99908.84;1721492;79;20981;-44
2021/09/10 09:57:43;;;;;;;8.33;5.30;;;;;;;26.71;34.23;99914.09;1743393;79;22077;-45
2021/09/10 10:00:10;;;;;;;6.80;4.97;;;;;;;26.73;34.25;99911.61;1745911;79;21118;-47
2021/09/10 10:02:37;;;;;;;7.20;4.70;;;;;;;26.75;34.45;99909.61;1731317;80;20992;-45
2021/09/10 10:05:06;;;;;;;7.20;4.78;;;;;;;26.77;34.54;99910.81;1731291;79;20984;-49
2021/09/10 10:07:52;;;;;;;5.92;4.65;;;;;;;26.79;34.62;99904.76;1738173;79;21470;-46
2021/09/10 10:10:21;;;;;;;5.55;4.42;;;;;;;26.82;34.68;99908.52;1721836;80;21042;-47
2021/09/10 10:12:48;;;;;;;6.67;4.42;;;;;;;26.85;34.73;99902.83;1740552;80;21122;-48
2021/09/10 10:15:28;;;;;;;5.45;4.40;;;;;;;26.87;34.78;99898.12;1694596;82;21065;-46
2021/09/10 10:17:56;;;;;;;7.20;4.28;;;;;;;26.89;34.85;99898.81;1699923;81;21562;-48
2021/09/10 10:20:49;;;;;;;5.83;4.45;;;;;;;26.92;34.90;99897.17;1716504;81;21613;-44
2021/09/10 10:23:47;;;;;;;5.80;4.22;;;;;;;26.96;34.96;99896.37;1740487;80;20980;-43
2021/09/10 10:26:38;;;;;;;7.55;3.85;;;;;;;26.98;35.05;99893.88;1743995;80;22229;-47
2021/09/10 10:29:10;;;;;;;5.55;3.92;;;;;;;27.01;35.10;99889.50;1738632;80;22023;-45
2021/09/10 10:32:05;;;;;;;5.25;4.20;;;;;;;27.04;35.11;99883.81;1708553;81;21422;-43
2021/09/10 10:34:34;;;;;;;4.17;3.77;;;;;;;27.06;35.14;99889.91;1689857;82;20975;-45
2021/09/10 10:37:22;;;;;;;4.30;3.70;;;;;;;27.09;34.40;99878.47;1699913;81;21083;-46
2021/09/10 10:39:49;;;;;;;5.42;3.83;;;;;;;27.11;34.61;99881.87;1697634;82;21098;-46
2021/09/10 10:42:16;;;;;;;6.62;4.33;;;;;;;27.12;33.69;99871.39;1670849;81;21043;-45
2021/09/10 10:44:45;;;;;;;9.80;4.83;;;;;;;27.13;33.92;99871.75;1741250;80;21864;-44
2021/09/10 10:47:20;;;;;;;11.15;4.30;;;;;;;27.15;33.89;99875.14;1701015;81;21043;-48
2021/09/10 10:49:48;;;;;;;7.75;4.15;;;;;;;27.16;33.38;99872.81;1679599;82;20991;-46
2021/09/10 10:52:38;;;;;;;6.05;4.28;;;;;;;27.17;33.25;99871.81;1735913;80;21112;-46
2021/09/10 10:55:23;;;;;;;7.10;4.00;;;;;;;27.17;33.03;99862.36;1713296;80;21597;-48
2021/09/10 10:57:53;;;;;;;6.08;3.98;;;;;;;27.17;32.80;99861.86;1659322;83;21123;-43
2021/09/10 11:00:34;;;;;;;5.17;4.25;;;;;;;27.19;32.57;99867.11;1706966;81;21186;-44
2021/09/10 11:03:19;;;;;;;10.35;5.20;;;;;;;27.18;32.37;99865.39;1664292;82;22019;-46
2021/09/10 11:05:52;;;;;;;9.58;4.60;;;;;;;27.22;32.21;99862.25;1697237;81;21806;-44
2021/09/10 11:08:31;;;;;;;8.30;4.30;;;;;;;27.27;31.63;99859.09;1730985;80;21965;-46
2021/09/10 11:10:57;;;;;;;8.13;4.62;;;;;;;27.30;31.05;99862.01;1720324;79;21075;-43
2021/09/10 11:13:23;;;;;;;14.90;4.53;;;;;;;27.32;31.57;99856.81;1753352;78;20984;-43
2021/09/10 11:15:50;;;;;;;13.88;4.47;;;;;;;27.36;31.69;99852.79;1742023;79;21530;-45
2021/09/10 11:18:18;;;;;;;7.85;4.20;;;;;;;27.39;31.95;99848.44;1747787;79;21024;-47
2021/09/10 11:20:48;;;;;;;9.23;4.10;;;;;;;27.40;31.97;99848.80;1742057;80;21016;-46
2021/09/10 11:23:20;;;;;;;8.08;4.25;;;;;;;27.41;31.72;99847.77;1708447;80;21030;-47
2021/09/10 11:25:51;;;;;;;8.65;4.35;;;;;;;27.45;31.26;99844.77;1714684;81;21153;-44
2021/09/10 11:28:19;;;;;;;8.28;3.70;;;;;;;27.46;31.17;99845.97;1735020;80;21427;-44